Quick Links (Output Below):   Max & Min Temps   /   Climate Reports   /   Zone Forecasts
River Forecasts   /   Forestry Forecasts   /   Aviation Forecasts   /   Radars   /   Features

Terminal Aerodrome Forecast (El Dorado)

Pick a Site:
Arkadelphia | El Dorado | Fayetteville | Fort Smith | Harrison | Highfill | Hot Springs | Jonesboro
Little Rock | Monticello | Mountain Home | Pine Bluff | Texarkana
 Forecast 

KELD 011720Z 0118/0218 17010KT P6SM SCT030 BKN050
     FM020000 15004KT P6SM SCT040
     FM021000 18003KT 5SM BR BKN020
      TEMPO 0211/0214 2SM BR OVC012
     FM021500 18007KT P6SM BKN030=


 Latest METARs (Observations) 
How to Decode METARs
18Z KELD 011753Z AUTO 16008KT 10SM SCT032 BKN042 BKN065 30/21 A2989
         RMK AO2 SLP117 T03000211 10311 20217 58006
         
17Z KELD 011653Z AUTO 17010KT 10SM SCT028 29/22 A2990 RMK AO2 SLP121
         T02940217
         
16Z KELD 011553Z AUTO 18008KT 10SM BKN024 28/22 A2991 RMK AO2 SLP124
         T02780217
         
15Z KELD 011453Z AUTO 17008KT 10SM CLR 27/21 A2990 RMK AO2 SLP122
         T02720211 51011
         
14Z KELD 011353Z AUTO 16006KT 10SM CLR 24/21 A2989 RMK AO2 SLP119
         T02440211
         
13Z KELD 011253Z AUTO 15004KT 9SM FEW030 BKN060 23/21 A2988 RMK AO2
         SLP117 T02280206
         
12Z KELD 011153Z AUTO 18003KT 10SM FEW060 22/20 A2987 RMK AO2 LTG DSNT
         N AND NW SLP111 T02170200 10233 20217 53006 $
         
11Z KELD 011053Z AUTO 14003KT 10SM BKN075 23/20 A2986 RMK AO2 LTG DSNT
         W SLP108 T02280200 $
         
10Z KELD 010953Z AUTO 16006KT 10SM FEW120 23/20 A2985 RMK AO2 SLP104
         T02330200
         
09Z KELD 010853Z AUTO 00000KT 10SM OVC065 23/19 A2985 RMK AO2 SLP105
         T02330194 53003
         
***** Today's Observations (Above) *****


Back to Main Page
http://www.srh.noaa.gov/lzk/qfcst.php

USA.gov is the U.S. government's official web portal to all federal, state and local government web resources and services.